createdAt,value
2016-07-02T00:00:35.720Z,73.72
2016-07-02T00:01:35.721Z,73.62
2016-07-02T00:02:35.725Z,73.72
2016-07-02T00:03:35.724Z,73.43
2016-07-02T00:04:35.720Z,73.72
2016-07-02T00:05:35.721Z,73.62
2016-07-02T00:06:35.715Z,73.72
2016-07-02T00:07:35.814Z,73.52
2016-07-02T00:08:36.708Z,73.62
2016-07-02T00:09:36.208Z,73.43
2016-07-02T00:10:35.949Z,73.81
2016-07-02T00:11:35.720Z,73.43
2016-07-02T00:12:35.714Z,73.62
2016-07-02T00:13:35.718Z,73.75
2016-07-02T00:14:35.715Z,73.85
2016-07-02T00:15:35.714Z,73.52
2016-07-02T00:16:35.714Z,73.81
2016-07-02T00:17:37.061Z,74.01
2016-07-02T00:18:35.716Z,74.19
2016-07-02T00:19:37.312Z,74.19
2016-07-02T00:20:35.715Z,74.01
2016-07-02T00:21:36.196Z,73.72
2016-07-02T00:22:35.712Z,74.01
2016-07-02T00:23:35.717Z,74.19
2016-07-02T00:24:35.715Z,74.48
2016-07-02T00:25:35.716Z,74.48
2016-07-02T00:26:35.710Z,74.58
2016-07-02T00:27:35.712Z,74.48
2016-07-02T00:28:36.326Z,74.29
2016-07-02T00:29:35.714Z,74.68
2016-07-02T00:30:35.712Z,74.96
2016-07-02T00:31:35.716Z,74.96
2016-07-02T00:32:35.713Z,75.25
2016-07-02T00:33:35.716Z,74.77
2016-07-02T00:34:35.712Z,75.25
2016-07-02T00:35:35.710Z,75.4
2016-07-02T00:36:35.710Z,74.93
2016-07-02T00:37:35.705Z,75.7
2016-07-02T00:38:35.707Z,75.4
2016-07-02T00:39:35.701Z,75.6
2016-07-02T00:40:35.710Z,75.4
2016-07-02T00:41:35.705Z,75.31
2016-07-02T00:42:35.703Z,75.4
2016-07-02T00:43:35.703Z,75.4
2016-07-02T00:44:35.707Z,75.21
2016-07-02T00:45:35.704Z,75.6
2016-07-02T00:46:35.700Z,75.79
2016-07-02T00:47:35.695Z,75.7
2016-07-02T00:48:35.696Z,75.89
2016-07-02T00:49:35.701Z,75.7
2016-07-02T00:50:35.696Z,75.7
2016-07-02T00:51:35.698Z,75.6
2016-07-02T00:52:35.696Z,75.89
2016-07-02T00:53:35.701Z,75.6
2016-07-02T00:54:35.697Z,76.07
2016-07-02T00:55:35.697Z,76.46
2016-07-02T00:56:35.696Z,76.27
2016-07-02T00:57:35.695Z,76.27
2016-07-02T00:58:35.696Z,76.27
2016-07-02T00:59:35.690Z,76.17
2016-07-02T01:00:50.586Z,76.27
2016-07-02T01:01:36.712Z,76.27
2016-07-02T01:02:35.694Z,76.46
2016-07-02T01:03:35.685Z,76.07
2016-07-02T01:04:35.689Z,76.65
2016-07-02T01:05:35.886Z,77.04
2016-07-02T01:06:35.793Z,76.94
2016-07-02T01:07:35.687Z,76.94
2016-07-02T01:08:35.684Z,76.94
2016-07-02T01:09:35.683Z,77.13
2016-07-02T01:10:35.736Z,77.09
2016-07-02T01:11:35.778Z,76.9
2016-07-02T01:12:36.334Z,77.58
2016-07-02T01:13:35.679Z,77.76
2016-07-02T01:14:35.777Z,77.86
2016-07-02T01:15:35.679Z,77.95
2016-07-02T01:16:35.678Z,77.76
2016-07-02T01:17:35.675Z,77.76
2016-07-02T01:18:35.678Z,77.48
2016-07-02T01:19:35.671Z,78.44
2016-07-02T01:20:35.677Z,78.15
2016-07-02T01:21:35.675Z,78.44
2016-07-02T01:22:36.276Z,78.63
2016-07-02T01:23:35.675Z,78.44
2016-07-02T01:24:35.676Z,78.44
2016-07-02T01:25:35.669Z,79.01
2016-07-02T01:26:37.174Z,78.63
2016-07-02T01:27:35.669Z,78.34
2016-07-02T01:28:36.758Z,78.92
2016-07-02T01:29:35.665Z,79.26
2016-07-02T01:30:36.577Z,79.07
2016-07-02T01:31:36.008Z,79.26
2016-07-02T01:32:35.667Z,78.97
2016-07-02T01:33:35.661Z,79.83
2016-07-02T01:34:35.662Z,79.55
2016-07-02T01:35:35.674Z,80.03
2016-07-02T01:36:36.555Z,80.12
2016-07-02T01:37:36.092Z,79.83
2016-07-02T01:38:35.658Z,80.03
2016-07-02T01:39:35.661Z,80.22
2016-07-02T01:40:35.659Z,80.12
2016-07-02T01:41:35.651Z,80.79
2016-07-02T01:42:35.658Z,80.51
2016-07-02T01:43:35.652Z,80.6
2016-07-02T01:44:35.654Z,81.18
2016-07-02T01:45:35.652Z,81.18
2016-07-02T01:46:35.648Z,81.18
2016-07-02T01:47:35.646Z,80.79
2016-07-02T01:48:35.648Z,81.95
2016-07-02T01:49:35.644Z,81.46
2016-07-02T01:50:35.644Z,81.46
2016-07-02T01:51:35.639Z,81.37
2016-07-02T01:52:35.643Z,81.46
2016-07-02T01:53:35.643Z,81.46
2016-07-02T01:54:35.638Z,81.95
2016-07-02T01:55:35.639Z,82.23
2016-07-02T01:56:35.632Z,81.95
2016-07-02T01:57:35.635Z,82.23
2016-07-02T01:58:35.640Z,82.71
2016-07-02T01:59:35.632Z,82.57
2016-07-02T02:00:35.630Z,82.86
2016-07-02T02:01:35.632Z,83
2016-07-02T02:02:35.628Z,83.53
2016-07-02T02:03:35.628Z,83.34
2016-07-02T02:04:35.626Z,83.15
2016-07-02T02:05:35.623Z,82.96
2016-07-02T02:06:35.627Z,83.92
2016-07-02T02:07:35.719Z,84.01
2016-07-02T02:08:35.623Z,84.11
2016-07-02T02:09:35.617Z,83.72
2016-07-02T02:10:35.621Z,84.39
2016-07-02T02:11:35.616Z,84.39
2016-07-02T02:12:35.617Z,84.78
2016-07-02T02:13:35.614Z,84.39
2016-07-02T02:14:35.611Z,84.58
2016-07-02T02:15:35.611Z,84.88
2016-07-02T02:16:35.609Z,84.78
2016-07-02T02:17:35.625Z,84.58
2016-07-02T02:18:35.610Z,84.97
2016-07-02T02:19:35.705Z,84.88
2016-07-02T02:20:35.601Z,84.58
2016-07-02T02:21:35.804Z,84.88
2016-07-02T02:22:35.602Z,84.97
2016-07-02T02:23:35.598Z,85.35
2016-07-02T02:24:35.601Z,85.64
2016-07-02T02:25:35.595Z,85.83
2016-07-02T02:26:35.594Z,85.45
2016-07-02T02:27:35.592Z,85.35
2016-07-02T02:28:35.597Z,85.74
2016-07-02T02:29:35.602Z,85.35
2016-07-02T02:30:36.439Z,85.83
2016-07-02T02:31:35.593Z,85.35
2016-07-02T02:32:35.589Z,85.83
2016-07-02T02:33:35.590Z,86.5
2016-07-02T02:34:35.582Z,86.02
2016-07-02T02:35:35.581Z,85.83
2016-07-02T02:36:35.582Z,85.93
2016-07-02T02:37:35.578Z,86.31
2016-07-02T02:38:35.576Z,86.21
2016-07-02T02:39:35.578Z,86.5
2016-07-02T02:40:35.575Z,86.02
2016-07-02T02:41:35.568Z,86.6
2016-07-02T02:42:35.574Z,86.79
2016-07-02T02:43:35.568Z,86.69
2016-07-02T02:44:35.568Z,86.69
2016-07-02T02:45:35.563Z,86.41
2016-07-02T02:46:35.655Z,86.31
2016-07-02T02:47:35.574Z,86.27
2016-07-02T02:48:36.123Z,86.36
2016-07-02T02:49:36.336Z,86.46
2016-07-02T02:50:36.157Z,86.46
2016-07-02T02:51:35.557Z,86.41
2016-07-02T02:52:35.555Z,86.41
2016-07-02T02:53:35.558Z,86.46
2016-07-02T02:54:37.046Z,86.21
2016-07-02T02:55:36.332Z,86.17
2016-07-02T02:56:35.548Z,86.65
2016-07-02T02:57:35.550Z,86.74
2016-07-02T02:58:35.592Z,86.5
2016-07-02T02:59:35.928Z,86.55
2016-07-02T03:00:35.541Z,86.65
2016-07-02T03:01:35.536Z,86.55
2016-07-02T03:02:35.539Z,86.41
2016-07-02T03:03:35.540Z,86.6
2016-07-02T03:04:35.533Z,86.5
2016-07-02T03:05:35.530Z,86.41
2016-07-02T03:06:35.530Z,86.6
2016-07-02T03:07:35.530Z,86.79
2016-07-02T03:08:35.541Z,86.69
2016-07-02T03:09:35.531Z,86.69
2016-07-02T03:10:35.524Z,86.5
2016-07-02T03:11:35.522Z,86.41
2016-07-02T03:12:35.523Z,86.6
2016-07-02T03:13:35.518Z,86.5
2016-07-02T03:14:35.521Z,86.5
2016-07-02T03:15:35.513Z,86.69
2016-07-02T03:16:35.511Z,86.5
2016-07-02T03:17:35.515Z,86.41
2016-07-02T03:18:35.508Z,86.02
2016-07-02T03:19:35.507Z,86.02
2016-07-02T03:20:35.505Z,86.21
2016-07-02T03:21:35.504Z,86.6
2016-07-02T03:22:35.508Z,86.5
2016-07-02T03:23:35.505Z,86.45
2016-07-02T03:24:35.502Z,86.12
2016-07-02T03:25:35.505Z,86.16
2016-07-02T03:26:35.493Z,86.16
2016-07-02T03:27:35.501Z,86.35
2016-07-02T03:28:35.492Z,86.16
2016-07-02T03:29:35.494Z,86.07
2016-07-02T03:30:35.495Z,86.3
2016-07-02T03:31:35.494Z,86.21
2016-07-02T03:32:35.490Z,85.67
2016-07-02T03:33:35.492Z,84.91
2016-07-02T03:34:35.493Z,84.95
2016-07-02T03:35:35.491Z,84.27
2016-07-02T03:36:35.486Z,84.18
2016-07-02T03:37:36.037Z,83.36
2016-07-02T03:38:36.086Z,82.34
2016-07-02T03:39:35.892Z,81.67
2016-07-02T03:40:35.486Z,80.94
2016-07-02T03:41:35.552Z,80.17
2016-07-02T03:42:35.643Z,79.82
2016-07-02T03:43:35.488Z,78.96
2016-07-02T03:44:35.489Z,77.84
2016-07-02T03:45:35.493Z,77.21
2016-07-02T03:46:35.788Z,76.63
2016-07-02T03:47:36.239Z,75.51
2016-07-02T03:48:35.492Z,74.93
2016-07-02T03:49:35.490Z,74.49
2016-07-02T03:50:35.488Z,74.01
2016-07-02T03:51:35.551Z,73.18
2016-07-02T03:52:35.499Z,72.21
2016-07-02T03:53:35.500Z,70.7
2016-07-02T03:54:35.505Z,70.16
2016-07-02T03:55:35.509Z,69.49
2016-07-02T03:56:35.516Z,68.46
2016-07-02T03:57:35.513Z,68.26
2016-07-02T03:58:35.518Z,67.69
2016-07-02T03:59:35.522Z,66.36
2016-07-02T04:00:35.529Z,66.2
2016-07-02T04:01:35.528Z,65.24
2016-07-02T04:02:35.534Z,64.5
2016-07-02T04:03:36.407Z,63.63
2016-07-02T04:04:35.849Z,63.37
2016-07-02T04:05:35.555Z,62.5
2016-07-02T04:06:35.571Z,61.95
2016-07-02T04:07:36.501Z,60.3
2016-07-02T04:08:35.567Z,59.43
2016-07-02T04:09:35.576Z,59.27
2016-07-02T04:10:35.571Z,58.88
2016-07-02T04:11:35.594Z,58.42
2016-07-02T04:12:37.146Z,57.48
2016-07-02T04:13:35.590Z,56.51
2016-07-02T04:14:35.958Z,56.03
2016-07-02T04:15:36.059Z,56.05
2016-07-02T04:16:35.618Z,54.8
2016-07-02T04:17:36.383Z,54.6
2016-07-02T04:18:35.635Z,53.92
2016-07-02T04:19:35.636Z,53.47
2016-07-02T04:20:35.640Z,52.78
2016-07-02T04:21:35.653Z,52.4
2016-07-02T04:22:35.662Z,51.81
2016-07-02T04:23:35.674Z,51.62
2016-07-02T04:24:35.679Z,51.33
2016-07-02T04:25:35.688Z,50.96
2016-07-02T04:26:35.698Z,50.58
2016-07-02T04:27:35.703Z,50.21
2016-07-02T04:28:35.709Z,49.66
2016-07-02T04:29:35.728Z,48.88
2016-07-02T04:30:35.728Z,48.13
2016-07-02T04:31:35.741Z,48.13
2016-07-02T04:32:35.750Z,47.08
2016-07-02T04:33:35.753Z,47.08
2016-07-02T04:34:35.762Z,46.3
2016-07-02T04:35:35.764Z,46.23
2016-07-02T04:36:35.781Z,45.64
2016-07-02T04:37:35.787Z,44.89
2016-07-02T04:38:35.798Z,44.76
2016-07-02T04:39:35.815Z,44.4
2016-07-02T04:40:35.815Z,44.1
2016-07-02T04:41:35.822Z,43.71
2016-07-02T04:42:35.841Z,43.43
2016-07-02T04:43:35.852Z,42.76
2016-07-02T04:44:35.860Z,42.28
2016-07-02T04:45:35.870Z,42.38
2016-07-02T04:46:35.883Z,42
2016-07-02T04:47:35.898Z,41.44
2016-07-02T04:48:35.901Z,41.63
2016-07-02T04:49:35.917Z,41.36
2016-07-02T04:50:35.921Z,40.7
2016-07-02T04:51:35.932Z,40.43
2016-07-02T04:52:35.947Z,39.37
2016-07-02T04:53:35.957Z,39
2016-07-02T04:54:35.968Z,38.34
2016-07-02T04:56:35.988Z,37.79
2016-07-02T04:57:36.852Z,37.49
2016-07-02T04:58:37.160Z,37.51
2016-07-02T04:59:36.019Z,36.65
2016-07-02T05:00:36.033Z,36.08
2016-07-02T05:01:36.042Z,35.11
2016-07-02T05:02:36.060Z,35.21
2016-07-02T05:03:36.070Z,34.62
2016-07-02T05:04:36.886Z,33.85
2016-07-02T05:05:36.544Z,33.75
2016-07-02T05:06:36.410Z,33.46
2016-07-02T05:07:36.112Z,33.17
2016-07-02T05:08:36.126Z,32.87
2016-07-02T05:09:36.135Z,32.57
2016-07-02T05:10:36.159Z,31.79
2016-07-02T05:11:36.164Z,31.38
2016-07-02T05:12:36.188Z,31.37
2016-07-02T05:13:36.195Z,31.96
2016-07-02T05:14:36.210Z,31.47
2016-07-02T05:15:36.222Z,31.27
2016-07-02T05:16:36.239Z,31.37
2016-07-02T05:17:36.246Z,31.07
2016-07-02T05:18:36.266Z,30.58
2016-07-02T05:19:36.273Z,30.68
2016-07-02T05:20:36.298Z,30.58
2016-07-02T05:21:36.356Z,30.6
2016-07-02T05:22:37.008Z,30.21
2016-07-02T05:23:37.826Z,30.21
2016-07-02T05:24:36.348Z,29.63
2016-07-02T05:25:36.359Z,29.83
2016-07-02T05:26:36.380Z,29.64
2016-07-02T05:27:36.384Z,29.37
2016-07-02T05:28:36.408Z,29.07
2016-07-02T05:29:36.409Z,28.97
2016-07-02T05:30:36.437Z,28.2
2016-07-02T05:31:36.444Z,28.19
2016-07-02T05:32:36.464Z,28.47
2016-07-02T05:33:36.508Z,29.06
2016-07-02T05:34:37.339Z,29.05
2016-07-02T05:35:36.881Z,29.43
2016-07-02T05:36:36.521Z,29.22
2016-07-02T05:37:36.530Z,29.6
2016-07-02T05:38:36.546Z,29.9
2016-07-02T05:39:36.563Z,29.98
2016-07-02T05:40:36.573Z,30.46
2016-07-02T05:41:36.585Z,30.55
2016-07-02T05:42:36.597Z,31.42
2016-07-02T05:43:36.613Z,31.68
2016-07-02T05:44:36.623Z,32.45
2016-07-02T05:45:36.639Z,32.82
2016-07-02T05:46:36.653Z,33.5
2016-07-02T05:47:36.660Z,34.26
2016-07-02T05:48:36.673Z,34.92
2016-07-02T05:49:36.686Z,35.3
2016-07-02T05:50:36.695Z,35.77
2016-07-02T05:51:36.702Z,36.84
2016-07-02T05:52:36.717Z,37.12
2016-07-02T05:53:36.728Z,37.5
2016-07-02T05:54:36.737Z,37.6
2016-07-02T05:55:36.748Z,37.33
2016-07-02T05:56:36.754Z,36.84
2016-07-02T05:57:36.782Z,36.47
2016-07-02T05:58:36.774Z,36.19
2016-07-02T05:59:36.787Z,35.63
2016-07-02T06:00:36.802Z,34.96
2016-07-02T06:01:36.814Z,34.5
2016-07-02T06:02:36.825Z,33.45
2016-07-02T06:03:36.833Z,33.05
2016-07-02T06:04:36.847Z,32.68
2016-07-02T06:05:36.859Z,32.09
2016-07-02T06:06:36.869Z,31.81
2016-07-02T06:07:36.880Z,31.54
2016-07-02T06:08:36.896Z,31.35
2016-07-02T06:09:36.918Z,30.49
2016-07-02T06:10:36.924Z,30.01
2016-07-02T06:11:36.936Z,29.53
2016-07-02T06:12:36.944Z,29.34
2016-07-02T06:14:37.726Z,29.17
2016-07-02T06:15:37.134Z,28.11
2016-07-02T06:16:37.002Z,28.12
2016-07-02T06:17:37.020Z,27.92
2016-07-02T06:18:37.032Z,27.44
2016-07-02T06:19:37.040Z,26.95
2016-07-02T06:20:37.067Z,26.87
2016-07-02T06:21:37.134Z,25.79
2016-07-02T06:22:37.095Z,25.89
2016-07-02T06:23:37.116Z,25.4
2016-07-02T06:24:37.124Z,25.22
2016-07-02T06:25:37.544Z,25.02
2016-07-02T06:26:37.161Z,24.45
2016-07-02T06:27:37.176Z,25.05
2016-07-02T06:28:37.650Z,24.08
2016-07-02T06:29:37.208Z,23.79
2016-07-02T06:30:37.230Z,23.9
2016-07-02T06:31:37.247Z,23.02
2016-07-02T06:32:37.264Z,22.33
2016-07-02T06:33:37.282Z,22.03
2016-07-02T06:34:37.300Z,22.14
2016-07-02T06:35:37.314Z,21.94
2016-07-02T06:36:37.335Z,21.46
2016-07-02T06:37:37.352Z,21.37
2016-07-02T06:38:37.375Z,20.68
2016-07-02T06:39:37.394Z,20.78
2016-07-02T06:40:38.681Z,20.89
2016-07-02T06:41:38.740Z,20.2
2016-07-02T06:42:37.456Z,19.81
2016-07-02T06:43:37.493Z,20.02
2016-07-02T06:44:37.500Z,19.33
2016-07-02T06:45:37.989Z,19.71
2016-07-02T06:46:37.535Z,19.32
2016-07-02T06:47:37.558Z,19.32
2016-07-02T06:48:37.580Z,19.71
2016-07-02T06:49:37.598Z,19.6
2016-07-02T06:50:38.304Z,19.71
2016-07-02T06:51:38.678Z,19.62
2016-07-02T06:52:37.659Z,19.13
2016-07-02T06:53:38.412Z,19.24
2016-07-02T06:54:38.080Z,19.15
2016-07-02T06:55:37.722Z,18.45
2016-07-02T06:56:37.745Z,18.85
2016-07-02T06:57:37.765Z,18.85
2016-07-02T06:58:37.788Z,18.35
2016-07-02T06:59:37.803Z,18.05
2016-07-02T07:00:37.823Z,17.55
2016-07-02T07:01:37.846Z,17.74
2016-07-02T07:02:37.865Z,17.84
2016-07-02T07:03:37.885Z,18.43
2016-07-02T07:04:37.913Z,18.13
2016-07-02T07:05:37.929Z,17.63
2016-07-02T07:06:37.944Z,18.02
2016-07-02T07:07:37.974Z,18.12
2016-07-02T07:08:37.991Z,17.93
2016-07-02T07:09:38.016Z,18.23
2016-07-02T07:10:38.038Z,17.73
2016-07-02T07:11:38.055Z,17.65
2016-07-02T07:12:38.084Z,17.63
2016-07-02T07:13:38.103Z,17.73
2016-07-02T07:14:38.116Z,17.24
2016-07-02T07:15:38.141Z,17.04
2016-07-02T07:16:38.167Z,17.34
2016-07-02T07:17:38.190Z,17.14
2016-07-02T07:18:38.209Z,17.44
2016-07-02T07:19:38.233Z,17.44
2016-07-02T07:20:38.254Z,16.85
2016-07-02T07:21:38.280Z,17.14
2016-07-02T07:22:38.295Z,16.95
2016-07-02T07:23:38.322Z,16.95
2016-07-02T07:24:38.342Z,16.95
2016-07-02T07:25:38.370Z,16.55
2016-07-02T07:26:38.385Z,16.75
2016-07-02T07:27:38.409Z,16.75
2016-07-02T07:28:38.434Z,16.65
2016-07-02T07:29:38.451Z,16.36
2016-07-02T07:30:38.476Z,16.16
2016-07-02T07:31:38.498Z,15.97
2016-07-02T07:32:39.618Z,15.95
2016-07-02T07:33:38.544Z,16.25
2016-07-02T07:34:39.115Z,16.84
2016-07-02T07:35:38.588Z,16.44
2016-07-02T07:36:38.607Z,16.74
2016-07-02T07:37:38.636Z,17.13
2016-07-02T07:38:38.858Z,16.55
2016-07-02T07:39:38.675Z,16.27
2016-07-02T07:40:38.693Z,16.35
2016-07-02T07:41:39.868Z,16.55
2016-07-02T07:42:38.792Z,16.25
2016-07-02T07:43:38.766Z,16.16
2016-07-02T07:44:38.783Z,16.06
2016-07-02T07:45:38.807Z,15.97
2016-07-02T07:46:38.828Z,15.77
2016-07-02T07:47:38.846Z,15.87
2016-07-02T07:48:38.871Z,15.66
2016-07-02T07:49:38.893Z,16.05
2016-07-02T07:50:38.914Z,16.25
2016-07-02T07:51:38.939Z,16.53
2016-07-02T07:52:38.959Z,16.43
2016-07-02T07:53:38.997Z,17.12
2016-07-02T07:54:39.002Z,17.11
2016-07-02T07:55:39.026Z,17.41
2016-07-02T07:56:39.045Z,17.6
2016-07-02T07:57:39.065Z,17.8
2016-07-02T07:59:39.105Z,18.59
2016-07-02T08:00:39.313Z,18.59
2016-07-02T08:01:39.141Z,18.38
2016-07-02T08:02:40.080Z,18.68
2016-07-02T08:03:39.180Z,19.17
2016-07-02T08:04:39.195Z,19.45
2016-07-02T08:05:39.219Z,19.44
2016-07-02T08:06:39.231Z,20.12
2016-07-02T08:07:39.784Z,20.22
2016-07-02T08:08:39.796Z,20.5
2016-07-02T08:09:40.013Z,20.7
2016-07-02T08:10:40.201Z,21.36
2016-07-02T08:11:40.010Z,21.45
2016-07-02T08:12:39.328Z,21.94
2016-07-02T08:13:39.345Z,22.42
2016-07-02T08:14:39.363Z,23.1
2016-07-02T08:15:39.375Z,23.1
2016-07-02T08:16:39.381Z,23.29
2016-07-02T08:17:39.398Z,23.69
2016-07-02T08:18:39.412Z,23.58
2016-07-02T08:19:39.427Z,24.27
2016-07-02T08:20:39.444Z,24.06
2016-07-02T08:21:39.456Z,24.05
2016-07-02T08:22:39.472Z,24.35
2016-07-02T08:23:39.484Z,24.92
2016-07-02T08:24:39.498Z,24.92
2016-07-02T08:25:39.506Z,25.51
2016-07-02T08:26:39.525Z,25.31
2016-07-02T08:27:39.531Z,26.18
2016-07-02T08:28:39.550Z,26.18
2016-07-02T08:29:39.558Z,26.09
2016-07-02T08:30:39.576Z,26.27
2016-07-02T08:31:39.587Z,25.88
2016-07-02T08:32:39.594Z,25.77
2016-07-02T08:33:39.606Z,26.06
2016-07-02T08:34:39.622Z,26.35
2016-07-02T08:35:39.633Z,26.73
2016-07-02T08:36:39.644Z,27.03
2016-07-02T08:37:39.657Z,26.83
2016-07-02T08:38:39.656Z,26.83
2016-07-02T08:39:39.674Z,26.73
2016-07-02T08:40:39.679Z,26.83
2016-07-02T08:41:39.688Z,26.84
2016-07-02T08:42:39.710Z,26.55
2016-07-02T08:43:39.716Z,26.95
2016-07-02T08:44:39.734Z,26.56
2016-07-02T08:45:39.742Z,26.56
2016-07-02T08:46:39.754Z,25.98
2016-07-02T08:47:39.767Z,26.17
2016-07-02T08:48:39.775Z,26.28
2016-07-02T08:49:39.789Z,26.18
2016-07-02T08:50:40.701Z,26.18
2016-07-02T08:51:40.411Z,26.18
2016-07-02T08:52:40.021Z,26.09
2016-07-02T08:53:39.834Z,26.58
2016-07-02T08:54:39.840Z,26.48
2016-07-02T08:55:39.856Z,26.78
2016-07-02T08:56:39.863Z,26.78
2016-07-02T08:57:40.174Z,26.67
2016-07-02T08:58:39.893Z,26.87
2016-07-02T08:59:39.899Z,26.87
2016-07-02T09:00:40.317Z,26.68
2016-07-02T09:01:39.927Z,27.07
2016-07-02T09:02:39.940Z,27.07
2016-07-02T09:03:39.948Z,26.78
2016-07-02T09:04:39.959Z,26.09
2016-07-02T09:05:40.072Z,26.18
2016-07-02T09:06:39.985Z,26.09
2016-07-02T09:07:39.992Z,26.46
2016-07-02T09:08:40.012Z,26.86
2016-07-02T09:09:40.019Z,26.55
2016-07-02T09:10:40.032Z,26.84
2016-07-02T09:11:40.038Z,26.75
2016-07-02T09:12:40.056Z,26.84
2016-07-02T09:13:40.060Z,27.15
2016-07-02T09:14:40.080Z,27.73
2016-07-02T09:15:40.092Z,28.02
2016-07-02T09:16:40.856Z,27.92
2016-07-02T09:17:41.321Z,28.11
2016-07-02T09:18:40.121Z,28.11
2016-07-02T09:19:40.290Z,28.68
2016-07-02T09:20:40.140Z,28.86
2016-07-02T09:21:40.155Z,29.55
2016-07-02T09:22:40.166Z,29.73
2016-07-02T09:23:40.182Z,29.81
2016-07-02T09:24:40.188Z,30.2
2016-07-02T09:26:41.250Z,35.27
2016-07-02T09:27:40.552Z,37.11
2016-07-02T09:28:41.643Z,37.67
2016-07-02T09:29:40.242Z,38.53
2016-07-02T09:30:40.252Z,39.29
2016-07-02T09:31:40.253Z,39.86
2016-07-02T09:32:40.551Z,40.25
2016-07-02T09:33:40.276Z,40.72
2016-07-02T09:34:40.289Z,40.72
2016-07-02T09:35:40.301Z,41.28
2016-07-02T09:36:40.308Z,41.19
2016-07-02T09:37:40.319Z,40.6
2016-07-02T09:38:40.327Z,40.91
2016-07-02T09:39:40.328Z,40.33
2016-07-02T09:40:40.346Z,40.03
2016-07-02T09:41:40.350Z,39.75
2016-07-02T09:42:40.359Z,39.75
2016-07-02T09:43:40.373Z,39.86
2016-07-02T09:44:40.385Z,39.47
2016-07-02T09:45:40.388Z,39.37
2016-07-02T09:46:40.396Z,39.08
2016-07-02T09:47:40.405Z,38.79
2016-07-02T09:48:40.417Z,38.98
2016-07-02T09:49:40.428Z,39.18
2016-07-02T09:50:40.428Z,39.18
2016-07-02T09:51:40.438Z,39.28
2016-07-02T09:52:40.446Z,38.89
2016-07-02T09:53:40.455Z,39.08
2016-07-02T09:54:40.470Z,39.06
2016-07-02T09:55:40.470Z,38.87
2016-07-02T09:56:40.492Z,39.45
2016-07-02T09:57:40.496Z,39.14
2016-07-02T09:58:40.500Z,39.04
2016-07-02T09:59:40.504Z,39.43
2016-07-02T10:00:40.507Z,40.21
2016-07-02T10:01:40.521Z,39.62
2016-07-02T10:02:40.536Z,39.8
2016-07-02T10:03:40.538Z,39.12
2016-07-02T10:04:40.544Z,40.19
2016-07-02T10:05:40.549Z,40.47
2016-07-02T10:06:40.564Z,40.47
2016-07-02T10:07:40.567Z,40.47
2016-07-02T10:08:40.570Z,40.75
2016-07-02T10:09:41.238Z,40.54
2016-07-02T10:10:40.793Z,40.93
2016-07-02T10:11:40.697Z,41.32
2016-07-02T10:12:41.502Z,41.13
2016-07-02T10:13:40.614Z,41.51
2016-07-02T10:14:40.821Z,41.9
2016-07-02T10:15:40.624Z,42.56
2016-07-02T10:16:40.634Z,43.05
2016-07-02T10:17:41.656Z,44.02
2016-07-02T10:18:40.750Z,44.78
2016-07-02T10:19:40.655Z,44.87
2016-07-02T10:20:41.264Z,45.45
2016-07-02T10:21:40.682Z,45.45
2016-07-02T10:22:40.728Z,45.65
2016-07-02T10:23:40.679Z,45.75
2016-07-02T10:24:40.690Z,45.55
2016-07-02T10:25:40.700Z,46.23
2016-07-02T10:26:40.705Z,46.33
2016-07-02T10:27:40.713Z,46.91
2016-07-02T10:28:40.713Z,47.88
2016-07-02T10:29:40.725Z,48.18
2016-07-02T10:30:40.734Z,48.95
2016-07-02T10:31:40.735Z,49.73
2016-07-02T10:32:40.743Z,49.56
2016-07-02T10:33:40.753Z,49.66
2016-07-02T10:34:40.759Z,49.66
2016-07-02T10:35:42.263Z,49.56
2016-07-02T10:36:42.294Z,49.66
2016-07-02T10:37:41.724Z,49.37
2016-07-02T10:38:41.864Z,49.76
2016-07-02T10:39:41.654Z,49.19
2016-07-02T10:40:41.059Z,49
2016-07-02T10:41:40.807Z,48.9
2016-07-02T10:42:40.811Z,48.8
2016-07-02T10:43:40.822Z,48.34
2016-07-02T10:44:40.823Z,48.25
2016-07-02T10:45:40.832Z,48.17
2016-07-02T10:46:40.843Z,47
2016-07-02T10:47:41.532Z,47.13
2016-07-02T10:48:40.855Z,46.64
2016-07-02T10:49:40.867Z,46.15
2016-07-02T10:50:40.872Z,45.68
2016-07-02T10:51:41.003Z,45.1
2016-07-02T10:52:40.911Z,44.54
2016-07-02T10:53:40.903Z,43.95
2016-07-02T10:54:40.915Z,43.49
2016-07-02T10:55:40.922Z,43.29
2016-07-02T10:56:40.924Z,42.41
2016-07-02T10:57:40.934Z,42.44
2016-07-02T10:58:40.943Z,41.95
2016-07-02T10:59:40.948Z,41.75
2016-07-02T11:00:40.958Z,41.58
2016-07-02T11:01:40.967Z,41.67
2016-07-02T11:02:40.977Z,41.28
2016-07-02T11:03:40.980Z,41.66
2016-07-02T11:04:40.993Z,41.56
2016-07-02T11:05:41.003Z,41.25
2016-07-02T11:06:41.014Z,41.32
2016-07-02T11:07:41.024Z,41.89
2016-07-02T11:08:41.030Z,42.45
2016-07-02T11:09:41.038Z,43.71
2016-07-02T11:10:41.062Z,46.3
2016-07-02T11:11:41.054Z,47.83
2016-07-02T11:12:41.066Z,48.32
2016-07-02T11:13:41.070Z,48.9
2016-07-02T11:14:41.085Z,48.8
2016-07-02T11:15:41.091Z,49.07
2016-07-02T11:16:41.100Z,49.07
2016-07-02T11:17:41.107Z,48.22
2016-07-02T11:18:41.121Z,47.83
2016-07-02T11:19:41.129Z,47.15
2016-07-02T11:20:41.131Z,46.28
2016-07-02T11:21:41.143Z,45.31
2016-07-02T11:22:41.150Z,44.92
2016-07-02T11:23:41.159Z,44.43
2016-07-02T11:24:41.166Z,44.24
2016-07-02T11:25:41.181Z,43.54
2016-07-02T11:26:41.181Z,43.24
2016-07-02T11:27:41.193Z,42.18
2016-07-02T11:28:41.651Z,41.88
2016-07-02T11:29:41.211Z,42.25
2016-07-02T11:30:41.213Z,43.1
2016-07-02T11:31:41.223Z,43.18
2016-07-02T11:32:41.234Z,44.51
2016-07-02T11:33:41.241Z,46.82
2016-07-02T11:34:41.246Z,48.44
2016-07-02T11:35:41.253Z,50.74
2016-07-02T11:36:41.259Z,54.11
2016-07-02T11:37:41.272Z,57.56
2016-07-02T11:38:41.273Z,61.57
2016-07-02T11:39:41.582Z,66.17
2016-07-02T11:40:41.835Z,69.2
2016-07-02T11:41:41.897Z,71.9
2016-07-02T11:42:41.299Z,73.5
2016-07-02T11:43:41.303Z,74.62
2016-07-02T11:44:41.310Z,75.78
2016-07-02T11:45:41.322Z,76.93
2016-07-02T11:46:41.322Z,77.28
2016-07-02T11:47:41.331Z,78.31
2016-07-02T11:48:41.338Z,79.33
2016-07-02T11:49:41.341Z,80.77
2016-07-02T11:50:41.340Z,81.3
2016-07-02T11:51:41.343Z,82.17
2016-07-02T11:52:41.343Z,82.9
2016-07-02T11:53:41.875Z,83.86
2016-07-02T11:54:42.786Z,84.44
2016-07-02T11:55:41.358Z,85.21
2016-07-02T11:56:42.172Z,85.46
2016-07-02T11:57:41.369Z,86.32
2016-07-02T11:58:41.371Z,85.98
2016-07-02T11:59:41.369Z,86.94
2016-07-02T12:00:41.373Z,87.29
2016-07-02T12:01:41.379Z,87.86
2016-07-02T12:02:41.382Z,88.24
2016-07-02T12:03:41.382Z,88.15
2016-07-02T12:04:42.639Z,88.63
2016-07-02T12:05:42.110Z,88.73
2016-07-02T12:06:41.384Z,89.3
2016-07-02T12:07:41.392Z,89.88
2016-07-02T12:08:41.393Z,90.36
2016-07-02T12:09:41.387Z,90.75
2016-07-02T12:10:41.392Z,91.13
2016-07-02T12:11:41.391Z,90.75
2016-07-02T12:12:41.392Z,91.71
2016-07-02T12:13:41.397Z,91.52
2016-07-02T12:14:41.399Z,91.22
2016-07-02T12:15:41.396Z,90.8
2016-07-02T12:16:41.398Z,91.75
2016-07-02T12:17:41.398Z,92.05
2016-07-02T12:18:41.407Z,91.85
2016-07-02T12:19:41.400Z,92.62
2016-07-02T12:20:41.408Z,92.33
2016-07-02T12:21:41.407Z,92.91
2016-07-02T12:22:41.413Z,93.1
2016-07-02T12:23:41.412Z,93.1
2016-07-02T12:24:41.415Z,93.01
2016-07-02T12:25:41.410Z,93.29
2016-07-02T12:26:41.418Z,93.58
2016-07-02T12:27:41.411Z,93.49
2016-07-02T12:28:41.422Z,93.49
2016-07-02T12:29:41.429Z,93.49
2016-07-02T12:30:41.420Z,93.58
2016-07-02T12:31:41.423Z,93.87
2016-07-02T12:32:41.424Z,94.45
2016-07-02T12:33:41.422Z,93.92
2016-07-02T12:34:41.423Z,94.11
2016-07-02T12:35:41.431Z,93.92
2016-07-02T12:36:41.419Z,94.4
2016-07-02T12:37:41.422Z,94.31
2016-07-02T12:38:41.422Z,94.78
2016-07-02T12:39:41.425Z,94.59
2016-07-02T12:40:41.424Z,94.69
2016-07-02T12:41:41.433Z,94.88
2016-07-02T12:42:41.431Z,95.36
2016-07-02T12:43:41.429Z,95.45
2016-07-02T12:44:41.430Z,95.26
2016-07-02T12:45:41.431Z,95.5
2016-07-02T12:47:42.231Z,95.65
2016-07-02T12:48:41.584Z,95.55
2016-07-02T12:49:41.936Z,95.65
2016-07-02T12:50:56.328Z,95.6
2016-07-02T12:51:41.438Z,95.6
2016-07-02T12:52:41.441Z,96.42
2016-07-02T12:53:41.435Z,96.61
2016-07-02T12:54:42.486Z,96.03
2016-07-02T12:55:41.442Z,96.61
2016-07-02T12:57:41.790Z,96.42
2016-07-02T12:58:41.442Z,96.42
2016-07-02T12:59:41.441Z,97.38
2016-07-02T13:00:41.438Z,96.99
2016-07-02T13:01:41.437Z,96.89